sensor_id;sensor_type;location;lat;lon;timestamp;temperature;humidity
420;DHT22;42600;54.408;13.016;2022-07-15T00:02:04;14.50;83.90
420;DHT22;42600;54.408;13.016;2022-07-15T00:04:31;14.50;84.10
420;DHT22;42600;54.408;13.016;2022-07-15T00:06:58;14.50;84.10
420;DHT22;42600;54.408;13.016;2022-07-15T00:09:25;14.50;84.30
420;DHT22;42600;54.408;13.016;2022-07-15T00:12:05;14.40;84.30
420;DHT22;42600;54.408;13.016;2022-07-15T00:14:33;14.40;83.80
420;DHT22;42600;54.408;13.016;2022-07-15T00:17:00;14.40;84.00
420;DHT22;42600;54.408;13.016;2022-07-15T00:19:27;14.40;83.90
420;DHT22;42600;54.408;13.016;2022-07-15T00:21:54;14.30;83.90
420;DHT22;42600;54.408;13.016;2022-07-15T00:24:20;14.30;83.80
420;DHT22;42600;54.408;13.016;2022-07-15T00:26:47;14.30;83.90
420;DHT22;42600;54.408;13.016;2022-07-15T00:29:14;14.30;84.40
420;DHT22;42600;54.408;13.016;2022-07-15T00:31:42;14.30;84.10
420;DHT22;42600;54.408;13.016;2022-07-15T00:34:08;14.30;83.90
420;DHT22;42600;54.408;13.016;2022-07-15T00:36:35;14.20;84.50
420;DHT22;42600;54.408;13.016;2022-07-15T00:39:02;14.20;84.50
420;DHT22;42600;54.408;13.016;2022-07-15T00:41:35;14.20;84.10
420;DHT22;42600;54.408;13.016;2022-07-15T00:44:02;14.20;83.80
420;DHT22;42600;54.408;13.016;2022-07-15T00:46:28;14.20;83.90
420;DHT22;42600;54.408;13.016;2022-07-15T00:48:57;14.20;83.90
420;DHT22;42600;54.408;13.016;2022-07-15T00:51:24;14.20;83.80
420;DHT22;42600;54.408;13.016;2022-07-15T00:53:52;14.20;83.60
420;DHT22;42600;54.408;13.016;2022-07-15T00:56:21;14.20;83.40
420;DHT22;42600;54.408;13.016;2022-07-15T00:58:51;14.20;83.50
420;DHT22;42600;54.408;13.016;2022-07-15T01:01:19;14.20;83.90
420;DHT22;42600;54.408;13.016;2022-07-15T01:03:47;14.20;83.90
420;DHT22;42600;54.408;13.016;2022-07-15T01:06:15;14.20;84.00
420;DHT22;42600;54.408;13.016;2022-07-15T01:08:41;14.20;84.20
420;DHT22;42600;54.408;13.016;2022-07-15T01:11:08;14.20;84.60
420;DHT22;42600;54.408;13.016;2022-07-15T01:13:35;14.20;84.90
420;DHT22;42600;54.408;13.016;2022-07-15T01:16:01;14.20;84.90
420;DHT22;42600;54.408;13.016;2022-07-15T01:18:29;14.20;85.10
420;DHT22;42600;54.408;13.016;2022-07-15T01:20:57;14.20;85.10
420;DHT22;42600;54.408;13.016;2022-07-15T01:23:23;14.20;84.60
420;DHT22;42600;54.408;13.016;2022-07-15T01:25:50;14.20;84.60
420;DHT22;42600;54.408;13.016;2022-07-15T01:28:18;14.20;84.70
420;DHT22;42600;54.408;13.016;2022-07-15T01:30:45;14.10;84.10
420;DHT22;42600;54.408;13.016;2022-07-15T01:33:11;14.10;84.20
420;DHT22;42600;54.408;13.016;2022-07-15T01:35:38;14.10;84.50
420;DHT22;42600;54.408;13.016;2022-07-15T01:38:06;14.10;84.10
420;DHT22;42600;54.408;13.016;2022-07-15T01:40:32;14.10;84.00
420;DHT22;42600;54.408;13.016;2022-07-15T01:42:59;14.10;84.00
420;DHT22;42600;54.408;13.016;2022-07-15T01:45:26;14.10;83.80
420;DHT22;42600;54.408;13.016;2022-07-15T01:47:53;14.10;83.70
420;DHT22;42600;54.408;13.016;2022-07-15T01:50:20;14.00;83.60
420;DHT22;42600;54.408;13.016;2022-07-15T01:52:45;14.00;83.90
420;DHT22;42600;54.408;13.016;2022-07-15T01:55:13;14.00;84.00
420;DHT22;42600;54.408;13.016;2022-07-15T01:57:40;14.00;84.20
420;DHT22;42600;54.408;13.016;2022-07-15T02:00:08;14.00;84.20
420;DHT22;42600;54.408;13.016;2022-07-15T02:02:37;14.00;84.40
420;DHT22;42600;54.408;13.016;2022-07-15T02:05:04;14.00;84.40
420;DHT22;42600;54.408;13.016;2022-07-15T02:07:30;14.00;84.00
420;DHT22;42600;54.408;13.016;2022-07-15T02:09:57;14.00;83.70
420;DHT22;42600;54.408;13.016;2022-07-15T02:12:25;13.90;83.70
420;DHT22;42600;54.408;13.016;2022-07-15T02:14:51;13.90;83.20
420;DHT22;42600;54.408;13.016;2022-07-15T02:17:18;13.90;83.10
420;DHT22;42600;54.408;13.016;2022-07-15T02:19:45;13.90;83.40
420;DHT22;42600;54.408;13.016;2022-07-15T02:22:11;13.80;84.10
420;DHT22;42600;54.408;13.016;2022-07-15T02:24:38;13.90;83.70
420;DHT22;42600;54.408;13.016;2022-07-15T02:27:05;13.80;83.80
420;DHT22;42600;54.408;13.016;2022-07-15T02:29:33;13.80;83.90
420;DHT22;42600;54.408;13.016;2022-07-15T02:31:59;13.80;83.60
420;DHT22;42600;54.408;13.016;2022-07-15T02:34:26;13.80;83.80
420;DHT22;42600;54.408;13.016;2022-07-15T02:36:52;13.80;83.90
420;DHT22;42600;54.408;13.016;2022-07-15T02:39:19;13.70;84.30
420;DHT22;42600;54.408;13.016;2022-07-15T02:41:45;13.70;84.70
420;DHT22;42600;54.408;13.016;2022-07-15T02:44:12;13.70;84.70
420;DHT22;42600;54.408;13.016;2022-07-15T02:46:41;13.70;85.00
420;DHT22;42600;54.408;13.016;2022-07-15T02:49:08;13.70;85.00
420;DHT22;42600;54.408;13.016;2022-07-15T02:51:35;13.70;85.20
420;DHT22;42600;54.408;13.016;2022-07-15T02:54:01;13.60;85.10
420;DHT22;42600;54.408;13.016;2022-07-15T02:56:28;13.60;85.20
420;DHT22;42600;54.408;13.016;2022-07-15T02:58:54;13.60;85.20
420;DHT22;42600;54.408;13.016;2022-07-15T03:01:21;13.60;85.10
420;DHT22;42600;54.408;13.016;2022-07-15T03:03:49;13.60;85.30
420;DHT22;42600;54.408;13.016;2022-07-15T03:06:16;13.60;85.30
420;DHT22;42600;54.408;13.016;2022-07-15T03:08:43;13.60;85.30
420;DHT22;42600;54.408;13.016;2022-07-15T03:11:09;13.60;85.70
420;DHT22;42600;54.408;13.016;2022-07-15T03:13:36;13.50;85.50
420;DHT22;42600;54.408;13.016;2022-07-15T03:16:03;13.50;85.50
420;DHT22;42600;54.408;13.016;2022-07-15T03:18:30;13.60;85.80
420;DHT22;42600;54.408;13.016;2022-07-15T03:20:58;13.60;85.60
420;DHT22;42600;54.408;13.016;2022-07-15T03:23:24;13.60;85.80
420;DHT22;42600;54.408;13.016;2022-07-15T03:25:51;13.60;85.90
420;DHT22;42600;54.408;13.016;2022-07-15T03:28:17;13.60;86.00
420;DHT22;42600;54.408;13.016;2022-07-15T03:30:45;13.60;86.20
420;DHT22;42600;54.408;13.016;2022-07-15T03:33:12;13.50;86.40
420;DHT22;42600;54.408;13.016;2022-07-15T03:35:39;13.50;86.70
420;DHT22;42600;54.408;13.016;2022-07-15T03:38:08;13.50;86.40
420;DHT22;42600;54.408;13.016;2022-07-15T03:40:35;13.50;86.20
420;DHT22;42600;54.408;13.016;2022-07-15T03:43:01;13.50;86.20
420;DHT22;42600;54.408;13.016;2022-07-15T03:45:28;13.50;85.90
420;DHT22;42600;54.408;13.016;2022-07-15T03:47:55;13.50;86.00
420;DHT22;42600;54.408;13.016;2022-07-15T03:50:21;13.50;85.90
420;DHT22;42600;54.408;13.016;2022-07-15T03:52:48;13.50;86.00
420;DHT22;42600;54.408;13.016;2022-07-15T03:55:16;13.50;85.90
420;DHT22;42600;54.408;13.016;2022-07-15T03:57:42;13.50;85.90
420;DHT22;42600;54.408;13.016;2022-07-15T04:00:09;13.50;85.60
420;DHT22;42600;54.408;13.016;2022-07-15T04:02:37;13.50;86.00
420;DHT22;42600;54.408;13.016;2022-07-15T04:05:04;13.50;86.20
420;DHT22;42600;54.408;13.016;2022-07-15T04:07:31;13.50;86.20
420;DHT22;42600;54.408;13.016;2022-07-15T04:09:58;13.50;85.90
420;DHT22;42600;54.408;13.016;2022-07-15T04:12:26;13.50;85.90
420;DHT22;42600;54.408;13.016;2022-07-15T04:14:53;13.50;85.80
420;DHT22;42600;54.408;13.016;2022-07-15T04:17:19;13.60;85.80
420;DHT22;42600;54.408;13.016;2022-07-15T04:19:47;13.60;85.30
420;DHT22;42600;54.408;13.016;2022-07-15T04:22:13;13.60;85.50
420;DHT22;42600;54.408;13.016;2022-07-15T04:24:40;13.60;85.20
420;DHT22;42600;54.408;13.016;2022-07-15T04:27:07;13.70;84.90
420;DHT22;42600;54.408;13.016;2022-07-15T04:29:34;13.70;84.40
420;DHT22;42600;54.408;13.016;2022-07-15T04:32:02;13.70;84.10
420;DHT22;42600;54.408;13.016;2022-07-15T04:34:29;13.80;84.10
420;DHT22;42600;54.408;13.016;2022-07-15T04:36:55;13.80;83.90
420;DHT22;42600;54.408;13.016;2022-07-15T04:39:22;13.90;83.20
420;DHT22;42600;54.408;13.016;2022-07-15T04:41:48;13.90;83.00
420;DHT22;42600;54.408;13.016;2022-07-15T04:44:16;13.90;83.00
420;DHT22;42600;54.408;13.016;2022-07-15T04:46:44;14.00;82.50
420;DHT22;42600;54.408;13.016;2022-07-15T04:49:11;14.00;82.70
420;DHT22;42600;54.408;13.016;2022-07-15T04:51:55;14.00;82.80
420;DHT22;42600;54.408;13.016;2022-07-15T04:54:22;14.10;82.30
420;DHT22;42600;54.408;13.016;2022-07-15T04:56:49;14.10;81.90
420;DHT22;42600;54.408;13.016;2022-07-15T04:59:15;14.10;81.90
420;DHT22;42600;54.408;13.016;2022-07-15T05:01:42;14.10;82.10
420;DHT22;42600;54.408;13.016;2022-07-15T05:04:10;14.10;82.10
420;DHT22;42600;54.408;13.016;2022-07-15T05:06:36;14.10;82.40
420;DHT22;42600;54.408;13.016;2022-07-15T05:09:03;14.10;82.80
420;DHT22;42600;54.408;13.016;2022-07-15T05:11:30;14.20;83.10
420;DHT22;42600;54.408;13.016;2022-07-15T05:13:56;14.20;82.80
420;DHT22;42600;54.408;13.016;2022-07-15T05:16:23;14.20;82.80
420;DHT22;42600;54.408;13.016;2022-07-15T05:18:49;14.20;82.60
420;DHT22;42600;54.408;13.016;2022-07-15T05:21:18;14.20;82.30
420;DHT22;42600;54.408;13.016;2022-07-15T05:23:44;14.20;82.20
420;DHT22;42600;54.408;13.016;2022-07-15T05:26:11;14.30;82.00
420;DHT22;42600;54.408;13.016;2022-07-15T05:28:38;14.30;82.10
420;DHT22;42600;54.408;13.016;2022-07-15T05:31:06;14.30;81.90
420;DHT22;42600;54.408;13.016;2022-07-15T05:33:32;14.30;81.70
420;DHT22;42600;54.408;13.016;2022-07-15T05:35:59;14.30;81.70
420;DHT22;42600;54.408;13.016;2022-07-15T05:38:27;14.30;81.50
420;DHT22;42600;54.408;13.016;2022-07-15T05:40:54;14.40;81.40
420;DHT22;42600;54.408;13.016;2022-07-15T05:43:20;14.40;81.40
420;DHT22;42600;54.408;13.016;2022-07-15T05:45:47;14.40;81.20
420;DHT22;42600;54.408;13.016;2022-07-15T05:48:13;14.40;80.70
420;DHT22;42600;54.408;13.016;2022-07-15T05:50:40;14.40;80.70
420;DHT22;42600;54.408;13.016;2022-07-15T05:53:07;14.50;80.90
420;DHT22;42600;54.408;13.016;2022-07-15T05:55:34;14.50;80.70
420;DHT22;42600;54.408;13.016;2022-07-15T05:58:05;14.50;80.80
420;DHT22;42600;54.408;13.016;2022-07-15T06:00:32;14.60;81.10
420;DHT22;42600;54.408;13.016;2022-07-15T06:02:59;14.60;81.30
420;DHT22;42600;54.408;13.016;2022-07-15T06:05:26;14.60;81.20
420;DHT22;42600;54.408;13.016;2022-07-15T06:07:53;14.70;81.10
420;DHT22;42600;54.408;13.016;2022-07-15T06:10:19;14.70;81.30
420;DHT22;42600;54.408;13.016;2022-07-15T06:12:47;14.70;81.60
420;DHT22;42600;54.408;13.016;2022-07-15T06:15:14;14.80;81.30
420;DHT22;42600;54.408;13.016;2022-07-15T06:17:41;14.80;81.10
420;DHT22;42600;54.408;13.016;2022-07-15T06:20:09;14.80;81.00
420;DHT22;42600;54.408;13.016;2022-07-15T06:22:36;14.90;81.20
420;DHT22;42600;54.408;13.016;2022-07-15T06:25:03;14.90;81.20
420;DHT22;42600;54.408;13.016;2022-07-15T06:27:30;15.00;81.10
420;DHT22;42600;54.408;13.016;2022-07-15T06:29:58;15.20;80.80
420;DHT22;42600;54.408;13.016;2022-07-15T06:32:25;15.40;80.50
420;DHT22;42600;54.408;13.016;2022-07-15T06:34:52;15.50;79.80
420;DHT22;42600;54.408;13.016;2022-07-15T06:37:18;15.60;79.50
420;DHT22;42600;54.408;13.016;2022-07-15T06:39:45;15.80;79.40
420;DHT22;42600;54.408;13.016;2022-07-15T06:42:12;15.80;79.10
420;DHT22;42600;54.408;13.016;2022-07-15T06:44:39;15.90;79.10
420;DHT22;42600;54.408;13.016;2022-07-15T06:47:07;16.00;78.80
420;DHT22;42600;54.408;13.016;2022-07-15T06:49:34;16.10;78.60
420;DHT22;42600;54.408;13.016;2022-07-15T06:52:00;16.10;78.20
420;DHT22;42600;54.408;13.016;2022-07-15T06:54:27;16.20;78.20
420;DHT22;42600;54.408;13.016;2022-07-15T06:56:53;16.40;78.00
420;DHT22;42600;54.408;13.016;2022-07-15T06:59:20;16.30;78.00
420;DHT22;42600;54.408;13.016;2022-07-15T07:01:47;16.30;78.00
420;DHT22;42600;54.408;13.016;2022-07-15T07:04:15;16.30;78.30
420;DHT22;42600;54.408;13.016;2022-07-15T07:06:41;16.30;78.30
420;DHT22;42600;54.408;13.016;2022-07-15T07:09:08;16.50;78.00
420;DHT22;42600;54.408;13.016;2022-07-15T07:11:35;16.50;77.70
420;DHT22;42600;54.408;13.016;2022-07-15T07:14:01;16.60;77.70
420;DHT22;42600;54.408;13.016;2022-07-15T07:16:28;16.60;77.70
420;DHT22;42600;54.408;13.016;2022-07-15T07:18:56;16.70;77.40
420;DHT22;42600;54.408;13.016;2022-07-15T07:21:24;16.70;77.20
420;DHT22;42600;54.408;13.016;2022-07-15T07:23:51;16.80;76.90
420;DHT22;42600;54.408;13.016;2022-07-15T07:26:18;16.80;76.70
420;DHT22;42600;54.408;13.016;2022-07-15T07:28:45;16.80;77.10
420;DHT22;42600;54.408;13.016;2022-07-15T07:31:14;16.80;77.10
420;DHT22;42600;54.408;13.016;2022-07-15T07:33:41;16.90;77.10
420;DHT22;42600;54.408;13.016;2022-07-15T07:36:08;16.90;76.70
420;DHT22;42600;54.408;13.016;2022-07-15T07:38:36;17.00;76.60
420;DHT22;42600;54.408;13.016;2022-07-15T07:41:03;17.00;76.20
420;DHT22;42600;54.408;13.016;2022-07-15T07:43:29;17.10;76.00
420;DHT22;42600;54.408;13.016;2022-07-15T07:45:57;17.20;76.00
420;DHT22;42600;54.408;13.016;2022-07-15T07:48:24;17.20;75.50
420;DHT22;42600;54.408;13.016;2022-07-15T07:50:52;17.10;75.20
420;DHT22;42600;54.408;13.016;2022-07-15T07:53:18;17.20;75.20
420;DHT22;42600;54.408;13.016;2022-07-15T07:55:46;17.40;75.10
420;DHT22;42600;54.408;13.016;2022-07-15T07:58:13;17.40;75.20
420;DHT22;42600;54.408;13.016;2022-07-15T08:00:42;17.50;74.90
420;DHT22;42600;54.408;13.016;2022-07-15T08:03:09;17.60;74.40
420;DHT22;42600;54.408;13.016;2022-07-15T08:05:35;17.50;73.80
420;DHT22;42600;54.408;13.016;2022-07-15T08:08:13;17.40;73.50
420;DHT22;42600;54.408;13.016;2022-07-15T08:10:42;17.50;73.70
420;DHT22;42600;54.408;13.016;2022-07-15T08:13:11;17.60;73.30
420;DHT22;42600;54.408;13.016;2022-07-15T08:15:38;17.60;73.30
420;DHT22;42600;54.408;13.016;2022-07-15T08:18:05;17.60;72.90
420;DHT22;42600;54.408;13.016;2022-07-15T08:20:33;17.70;72.70
420;DHT22;42600;54.408;13.016;2022-07-15T08:23:01;17.80;72.50
420;DHT22;42600;54.408;13.016;2022-07-15T08:25:31;17.90;72.40
420;DHT22;42600;54.408;13.016;2022-07-15T08:27:58;17.80;72.10
420;DHT22;42600;54.408;13.016;2022-07-15T08:30:27;18.00;72.20
420;DHT22;42600;54.408;13.016;2022-07-15T08:32:54;17.90;71.80
420;DHT22;42600;54.408;13.016;2022-07-15T08:35:20;17.90;72.10
420;DHT22;42600;54.408;13.016;2022-07-15T08:37:47;17.90;72.50
420;DHT22;42600;54.408;13.016;2022-07-15T08:40:14;18.00;72.30
420;DHT22;42600;54.408;13.016;2022-07-15T08:42:42;18.00;72.30
420;DHT22;42600;54.408;13.016;2022-07-15T08:45:12;18.00;71.90
420;DHT22;42600;54.408;13.016;2022-07-15T08:47:42;18.10;71.50
420;DHT22;42600;54.408;13.016;2022-07-15T08:50:10;18.10;71.50
420;DHT22;42600;54.408;13.016;2022-07-15T08:52:38;18.10;71.20
420;DHT22;42600;54.408;13.016;2022-07-15T08:55:06;18.10;71.10
420;DHT22;42600;54.408;13.016;2022-07-15T08:57:33;18.10;71.00
420;DHT22;42600;54.408;13.016;2022-07-15T09:00:00;18.30;70.70
420;DHT22;42600;54.408;13.016;2022-07-15T09:02:26;18.40;70.60
420;DHT22;42600;54.408;13.016;2022-07-15T09:05:21;18.40;70.40
420;DHT22;42600;54.408;13.016;2022-07-15T09:07:55;18.40;70.30
420;DHT22;42600;54.408;13.016;2022-07-15T09:10:23;18.40;70.30
420;DHT22;42600;54.408;13.016;2022-07-15T09:12:50;18.40;70.50
420;DHT22;42600;54.408;13.016;2022-07-15T09:15:33;18.40;70.40
420;DHT22;42600;54.408;13.016;2022-07-15T09:18:11;18.50;68.80
420;DHT22;42600;54.408;13.016;2022-07-15T09:20:41;18.50;69.70
420;DHT22;42600;54.408;13.016;2022-07-15T09:23:09;18.60;69.10
420;DHT22;42600;54.408;13.016;2022-07-15T09:25:37;18.60;68.80
420;DHT22;42600;54.408;13.016;2022-07-15T09:28:07;18.70;69.10
420;DHT22;42600;54.408;13.016;2022-07-15T09:30:36;18.80;69.10
420;DHT22;42600;54.408;13.016;2022-07-15T09:33:21;18.90;69.10
420;DHT22;42600;54.408;13.016;2022-07-15T09:36:11;18.90;69.30
420;DHT22;42600;54.408;13.016;2022-07-15T09:38:44;18.90;68.80
420;DHT22;42600;54.408;13.016;2022-07-15T09:41:18;18.90;68.10
420;DHT22;42600;54.408;13.016;2022-07-15T09:43:49;18.90;67.80
420;DHT22;42600;54.408;13.016;2022-07-15T09:46:17;19.00;68.20
420;DHT22;42600;54.408;13.016;2022-07-15T09:48:45;19.10;68.20
420;DHT22;42600;54.408;13.016;2022-07-15T09:51:15;19.10;68.20
420;DHT22;42600;54.408;13.016;2022-07-15T09:53:43;19.20;68.30
420;DHT22;42600;54.408;13.016;2022-07-15T09:56:11;19.30;68.00
420;DHT22;42600;54.408;13.016;2022-07-15T09:58:40;19.20;67.80
420;DHT22;42600;54.408;13.016;2022-07-15T10:01:08;19.30;68.00
420;DHT22;42600;54.408;13.016;2022-07-15T10:03:36;19.40;67.90
420;DHT22;42600;54.408;13.016;2022-07-15T10:06:04;19.40;67.80
420;DHT22;42600;54.408;13.016;2022-07-15T10:08:34;19.50;66.30
420;DHT22;42600;54.408;13.016;2022-07-15T10:11:07;19.60;66.50
420;DHT22;42600;54.408;13.016;2022-07-15T10:13:51;19.60;67.60
420;DHT22;42600;54.408;13.016;2022-07-15T10:16:46;19.70;66.70
420;DHT22;42600;54.408;13.016;2022-07-15T10:19:23;19.80;67.00
420;DHT22;42600;54.408;13.016;2022-07-15T10:22:02;19.80;66.90
420;DHT22;42600;54.408;13.016;2022-07-15T10:24:49;19.80;67.00
420;DHT22;42600;54.408;13.016;2022-07-15T10:27:38;19.80;66.90
420;DHT22;42600;54.408;13.016;2022-07-15T10:30:10;19.90;67.10
420;DHT22;42600;54.408;13.016;2022-07-15T10:33:07;19.90;66.60
420;DHT22;42600;54.408;13.016;2022-07-15T10:35:37;19.80;67.30
420;DHT22;42600;54.408;13.016;2022-07-15T10:38:21;19.80;67.90
420;DHT22;42600;54.408;13.016;2022-07-15T10:41:00;19.70;68.10
420;DHT22;42600;54.408;13.016;2022-07-15T10:43:49;19.80;68.40
420;DHT22;42600;54.408;13.016;2022-07-15T10:46:27;19.90;67.70
420;DHT22;42600;54.408;13.016;2022-07-15T10:49:28;20.00;67.00
420;DHT22;42600;54.408;13.016;2022-07-15T10:52:10;20.00;66.50
420;DHT22;42600;54.408;13.016;2022-07-15T10:54:39;20.10;66.50
420;DHT22;42600;54.408;13.016;2022-07-15T10:57:08;20.10;66.40
420;DHT22;42600;54.408;13.016;2022-07-15T10:59:37;20.10;66.30
420;DHT22;42600;54.408;13.016;2022-07-15T11:02:14;20.20;66.40
420;DHT22;42600;54.408;13.016;2022-07-15T11:04:42;20.20;66.50
420;DHT22;42600;54.408;13.016;2022-07-15T11:07:20;20.10;66.50
420;DHT22;42600;54.408;13.016;2022-07-15T11:09:51;20.10;67.00
420;DHT22;42600;54.408;13.016;2022-07-15T11:12:21;20.10;67.30
420;DHT22;42600;54.408;13.016;2022-07-15T11:14:50;20.10;67.00
420;DHT22;42600;54.408;13.016;2022-07-15T11:17:21;20.10;67.10
420;DHT22;42600;54.408;13.016;2022-07-15T11:19:50;20.10;66.90
420;DHT22;42600;54.408;13.016;2022-07-15T11:22:18;20.20;66.50
420;DHT22;42600;54.408;13.016;2022-07-15T11:24:45;20.20;66.20
420;DHT22;42600;54.408;13.016;2022-07-15T11:27:11;20.10;66.10
420;DHT22;42600;54.408;13.016;2022-07-15T11:29:45;20.10;66.30
420;DHT22;42600;54.408;13.016;2022-07-15T11:32:12;20.10;66.80
420;DHT22;42600;54.408;13.016;2022-07-15T11:34:40;20.20;67.10
420;DHT22;42600;54.408;13.016;2022-07-15T11:37:08;20.10;67.30
420;DHT22;42600;54.408;13.016;2022-07-15T11:39:36;20.00;67.50
420;DHT22;42600;54.408;13.016;2022-07-15T11:42:03;19.80;67.50
420;DHT22;42600;54.408;13.016;2022-07-15T11:44:50;19.80;67.40
420;DHT22;42600;54.408;13.016;2022-07-15T11:47:17;19.80;67.70
420;DHT22;42600;54.408;13.016;2022-07-15T11:49:43;20.00;68.00
420;DHT22;42600;54.408;13.016;2022-07-15T11:52:12;20.00;67.80
420;DHT22;42600;54.408;13.016;2022-07-15T11:54:40;20.00;68.00
420;DHT22;42600;54.408;13.016;2022-07-15T11:57:09;20.00;67.90
420;DHT22;42600;54.408;13.016;2022-07-15T11:59:36;20.10;67.80
420;DHT22;42600;54.408;13.016;2022-07-15T12:02:06;20.10;66.50
420;DHT22;42600;54.408;13.016;2022-07-15T12:04:33;20.20;66.60
420;DHT22;42600;54.408;13.016;2022-07-15T12:07:00;20.30;66.10
420;DHT22;42600;54.408;13.016;2022-07-15T12:09:38;20.20;65.60
420;DHT22;42600;54.408;13.016;2022-07-15T12:12:05;20.30;65.50
420;DHT22;42600;54.408;13.016;2022-07-15T12:14:31;20.40;65.50
420;DHT22;42600;54.408;13.016;2022-07-15T12:16:59;20.40;64.90
420;DHT22;42600;54.408;13.016;2022-07-15T12:19:28;20.40;64.90
420;DHT22;42600;54.408;13.016;2022-07-15T12:21:58;20.40;65.10
420;DHT22;42600;54.408;13.016;2022-07-15T12:24:30;20.30;66.20
420;DHT22;42600;54.408;13.016;2022-07-15T12:27:02;20.20;66.60
420;DHT22;42600;54.408;13.016;2022-07-15T12:29:31;20.10;67.30
420;DHT22;42600;54.408;13.016;2022-07-15T12:31:59;20.10;67.50
420;DHT22;42600;54.408;13.016;2022-07-15T12:34:49;20.10;67.60
420;DHT22;42600;54.408;13.016;2022-07-15T12:37:17;20.10;67.60
420;DHT22;42600;54.408;13.016;2022-07-15T12:39:58;20.10;67.80
420;DHT22;42600;54.408;13.016;2022-07-15T12:42:29;20.10;68.00
420;DHT22;42600;54.408;13.016;2022-07-15T12:45:07;20.10;67.50
420;DHT22;42600;54.408;13.016;2022-07-15T12:47:34;20.00;67.20
420;DHT22;42600;54.408;13.016;2022-07-15T12:50:04;20.00;66.90
420;DHT22;42600;54.408;13.016;2022-07-15T12:52:33;20.00;67.20
420;DHT22;42600;54.408;13.016;2022-07-15T12:55:12;20.00;67.60
420;DHT22;42600;54.408;13.016;2022-07-15T12:57:39;20.10;67.80
420;DHT22;42600;54.408;13.016;2022-07-15T13:00:10;20.10;67.90
420;DHT22;42600;54.408;13.016;2022-07-15T13:03:01;20.00;68.00
420;DHT22;42600;54.408;13.016;2022-07-15T13:05:31;19.90;69.00
420;DHT22;42600;54.408;13.016;2022-07-15T13:07:59;19.80;69.00
420;DHT22;42600;54.408;13.016;2022-07-15T13:10:28;19.90;68.70
420;DHT22;42600;54.408;13.016;2022-07-15T13:12:55;20.00;68.20
420;DHT22;42600;54.408;13.016;2022-07-15T13:15:22;20.00;68.30
420;DHT22;42600;54.408;13.016;2022-07-15T13:17:48;20.10;68.30
420;DHT22;42600;54.408;13.016;2022-07-15T13:20:15;20.10;67.50
420;DHT22;42600;54.408;13.016;2022-07-15T13:22:43;20.10;67.10
420;DHT22;42600;54.408;13.016;2022-07-15T13:25:09;20.10;66.90
420;DHT22;42600;54.408;13.016;2022-07-15T13:27:37;20.10;66.60
420;DHT22;42600;54.408;13.016;2022-07-15T13:30:05;20.10;66.80
420;DHT22;42600;54.408;13.016;2022-07-15T13:32:32;20.20;66.30
420;DHT22;42600;54.408;13.016;2022-07-15T13:34:58;20.30;66.40
420;DHT22;42600;54.408;13.016;2022-07-15T13:37:25;20.30;66.80
420;DHT22;42600;54.408;13.016;2022-07-15T13:39:53;20.40;66.90
420;DHT22;42600;54.408;13.016;2022-07-15T13:42:19;20.40;66.60
420;DHT22;42600;54.408;13.016;2022-07-15T13:44:46;20.30;66.70
420;DHT22;42600;54.408;13.016;2022-07-15T13:47:13;20.30;66.90
420;DHT22;42600;54.408;13.016;2022-07-15T13:49:39;20.30;66.90
420;DHT22;42600;54.408;13.016;2022-07-15T13:52:23;20.30;66.90
420;DHT22;42600;54.408;13.016;2022-07-15T13:54:50;20.40;66.90
420;DHT22;42600;54.408;13.016;2022-07-15T13:57:18;20.40;66.20
420;DHT22;42600;54.408;13.016;2022-07-15T13:59:44;20.50;66.40
420;DHT22;42600;54.408;13.016;2022-07-15T14:02:12;20.50;66.20
420;DHT22;42600;54.408;13.016;2022-07-15T14:04:39;20.40;66.40
420;DHT22;42600;54.408;13.016;2022-07-15T14:07:06;20.40;66.10
420;DHT22;42600;54.408;13.016;2022-07-15T14:09:33;20.40;66.40
420;DHT22;42600;54.408;13.016;2022-07-15T14:12:00;20.40;66.40
420;DHT22;42600;54.408;13.016;2022-07-15T14:14:28;20.40;66.20
420;DHT22;42600;54.408;13.016;2022-07-15T14:16:55;20.40;66.20
420;DHT22;42600;54.408;13.016;2022-07-15T14:19:22;20.40;66.10
420;DHT22;42600;54.408;13.016;2022-07-15T14:21:49;20.40;65.70
420;DHT22;42600;54.408;13.016;2022-07-15T14:24:15;20.40;65.20
420;DHT22;42600;54.408;13.016;2022-07-15T14:26:43;20.30;64.80
420;DHT22;42600;54.408;13.016;2022-07-15T14:29:11;20.40;64.70
420;DHT22;42600;54.408;13.016;2022-07-15T14:31:39;20.30;65.20
420;DHT22;42600;54.408;13.016;2022-07-15T14:34:05;20.30;65.70
420;DHT22;42600;54.408;13.016;2022-07-15T14:36:33;20.30;66.10
420;DHT22;42600;54.408;13.016;2022-07-15T14:38:59;20.40;66.20
420;DHT22;42600;54.408;13.016;2022-07-15T14:41:26;20.40;66.10
420;DHT22;42600;54.408;13.016;2022-07-15T14:43:52;20.40;66.20
420;DHT22;42600;54.408;13.016;2022-07-15T14:46:19;20.30;66.00
420;DHT22;42600;54.408;13.016;2022-07-15T14:48:47;20.30;65.40
420;DHT22;42600;54.408;13.016;2022-07-15T14:51:14;20.30;65.60
420;DHT22;42600;54.408;13.016;2022-07-15T14:53:40;20.30;65.70
420;DHT22;42600;54.408;13.016;2022-07-15T14:56:07;20.20;65.60
420;DHT22;42600;54.408;13.016;2022-07-15T14:58:34;20.10;66.20
420;DHT22;42600;54.408;13.016;2022-07-15T15:01:01;20.00;66.20
420;DHT22;42600;54.408;13.016;2022-07-15T15:03:28;20.00;65.90
420;DHT22;42600;54.408;13.016;2022-07-15T15:05:56;20.00;66.20
420;DHT22;42600;54.408;13.016;2022-07-15T15:08:23;20.00;66.50
420;DHT22;42600;54.408;13.016;2022-07-15T15:10:50;20.00;66.90
420;DHT22;42600;54.408;13.016;2022-07-15T15:13:17;20.00;67.30
420;DHT22;42600;54.408;13.016;2022-07-15T15:15:43;20.00;67.40
420;DHT22;42600;54.408;13.016;2022-07-15T15:18:10;20.00;67.50
420;DHT22;42600;54.408;13.016;2022-07-15T15:20:37;19.90;67.70
420;DHT22;42600;54.408;13.016;2022-07-15T15:23:05;20.00;67.80
420;DHT22;42600;54.408;13.016;2022-07-15T15:25:32;19.90;67.90
420;DHT22;42600;54.408;13.016;2022-07-15T15:28:16;19.80;68.10
420;DHT22;42600;54.408;13.016;2022-07-15T15:30:42;19.80;68.40
420;DHT22;42600;54.408;13.016;2022-07-15T15:33:09;19.80;68.40
420;DHT22;42600;54.408;13.016;2022-07-15T15:35:36;19.80;68.50
420;DHT22;42600;54.408;13.016;2022-07-15T15:38:02;19.70;68.40
420;DHT22;42600;54.408;13.016;2022-07-15T15:40:30;19.70;68.60
420;DHT22;42600;54.408;13.016;2022-07-15T15:42:57;19.70;68.60
420;DHT22;42600;54.408;13.016;2022-07-15T15:45:24;19.70;68.70
420;DHT22;42600;54.408;13.016;2022-07-15T15:47:50;19.70;68.70
420;DHT22;42600;54.408;13.016;2022-07-15T15:50:17;19.70;68.80
420;DHT22;42600;54.408;13.016;2022-07-15T15:52:43;19.70;68.80
420;DHT22;42600;54.408;13.016;2022-07-15T15:55:10;19.60;69.20